Time;durP1;ratioP1;P1;durP2;ratioP2;P2;SDS_P1;SDS_P2;PMS_P1;PMS_P2;Temp;Humidity;BMP_temperature;BMP_pressure;BME280_temperature;BME280_humidity;BME280_pressure;Samples;Min_cycle;Max_cycle;Signal;HPM_P1;HPM_P2
2022/01/03 00:01:17;;;;;;;3.67;1.80;;;11.40;70.70;;;;;;5130668;27;20383;-73
2022/01/03 00:03:43;;;;;;;6.28;1.92;;;11.60;70.40;;;;;;5130303;27;20068;-73
2022/01/03 00:06:10;;;;;;;3.03;1.60;;;11.70;69.80;;;;;;5124807;27;20430;-72
2022/01/03 00:08:36;;;;;;;2.97;1.40;;;11.90;69.60;;;;;;5130072;27;20067;-73
2022/01/03 00:11:01;;;;;;;4.38;1.67;;;12.00;69.30;;;;;;5129858;27;20035;-73
2022/01/03 00:13:27;;;;;;;3.75;1.60;;;12.10;68.80;;;;;;5106081;27;20019;-73
2022/01/03 00:15:55;;;;;;;4.03;1.38;;;12.20;68.80;;;;;;5133006;27;20023;-73
2022/01/03 00:18:22;;;;;;;3.92;1.58;;;12.20;68.30;;;;;;5137228;27;20598;-73
2022/01/03 00:20:56;;;;;;;3.60;1.50;;;12.30;67.90;;;;;;5120117;27;20046;-73
2022/01/03 00:23:27;;;;;;;7.55;1.48;;;12.40;67.40;;;;;;5135510;27;20018;-72
2022/01/03 00:25:59;;;;;;;3.50;1.17;;;12.50;66.70;;;;;;5116905;27;20037;-73
2022/01/03 00:28:54;;;;;;;5.13;1.42;;;12.50;66.90;;;;;;5127573;27;20089;-72
2022/01/03 00:31:21;;;;;;;4.65;1.27;;;12.60;66.00;;;;;;5111518;27;20045;-73
2022/01/03 00:33:51;;;;;;;5.85;1.67;;;12.70;66.10;;;;;;5109490;27;20026;-73
2022/01/03 00:36:19;;;;;;;15.55;1.60;;;12.80;65.90;;;;;;5128989;27;20379;-72
2022/01/03 00:38:44;;;;;;;4.10;1.30;;;12.90;65.60;;;;;;5114643;27;20042;-71
2022/01/03 00:41:10;;;;;;;3.45;1.48;;;12.90;65.20;;;;;;5131767;27;20078;-73
2022/01/03 00:43:36;;;;;;;4.75;1.40;;;13.00;65.10;;;;;;5126854;27;20019;-72
2022/01/03 00:46:02;;;;;;;5.18;1.42;;;13.00;64.90;;;;;;5112943;27;20035;-72
2022/01/03 00:48:30;;;;;;;4.57;1.25;;;13.10;64.40;;;;;;5130799;27;20035;-72
2022/01/03 00:50:55;;;;;;;4.72;1.42;;;13.10;63.50;;;;;;5131927;27;20068;-72
2022/01/03 00:53:21;;;;;;;3.67;1.48;;;13.10;64.10;;;;;;5129485;27;20024;-72
2022/01/03 00:56:02;;;;;;;5.30;1.63;;;13.20;63.90;;;;;;5116209;27;20030;-72
2022/01/03 00:58:34;;;;;;;2.40;1.10;;;13.20;63.40;;;;;;5132109;27;20062;-72
2022/01/03 01:01:00;;;;;;;5.05;1.50;;;13.20;63.50;;;;;;5132219;27;20038;-73
2022/01/03 01:03:33;;;;;;;3.58;1.27;;;13.30;63.70;;;;;;5126310;27;20494;-72
2022/01/03 01:06:03;;;;;;;4.93;1.70;;;13.30;63.00;;;;;;5131836;27;20027;-72
2022/01/03 01:08:30;;;;;;;3.88;1.30;;;13.40;63.10;;;;;;5134501;27;20027;-72
2022/01/03 01:11:00;;;;;;;2.55;1.30;;;13.40;63.10;;;;;;5133947;27;20043;-72
2022/01/03 01:13:26;;;;;;;2.45;1.40;;;13.40;62.50;;;;;;5125107;27;20027;-72
2022/01/03 01:15:52;;;;;;;4.60;1.30;;;13.40;61.90;;;;;;5142112;27;20023;-72
2022/01/03 01:18:19;;;;;;;4.70;1.65;;;13.40;62.20;;;;;;5119343;27;20027;-72
2022/01/03 01:20:45;;;;;;;5.20;1.30;;;13.40;62.00;;;;;;5113626;27;20039;-72
2022/01/03 01:23:12;;;;;;;6.28;1.23;;;13.50;62.30;;;;;;5149074;27;20026;-72
2022/01/03 01:28:06;;;;;;;5.72;1.45;;;13.50;61.50;;;;;;5122829;27;20026;-72
2022/01/03 01:30:33;;;;;;;2.88;1.30;;;13.50;61.50;;;;;;5117909;28;20119;-72
2022/01/03 01:33:12;;;;;;;2.63;1.38;;;13.50;61.40;;;;;;5129028;27;20098;-72
2022/01/03 01:35:52;;;;;;;5.55;1.75;;;13.50;60.90;;;;;;5145990;27;20047;-72
2022/01/03 01:38:21;;;;;;;4.10;1.27;;;13.50;58.90;;;;;;5130008;27;20023;-72
2022/01/03 01:40:49;;;;;;;4.70;1.40;;;13.50;60.30;;;;;;5124896;27;20502;-72
2022/01/03 01:43:24;;;;;;;4.15;1.48;;;13.60;60.00;;;;;;5128678;27;20027;-72
2022/01/03 01:45:51;;;;;;;4.15;1.23;;;13.50;59.90;;;;;;5107449;28;20020;-71
2022/01/03 01:48:17;;;;;;;3.50;1.20;;;13.60;60.40;;;;;;5122509;27;20517;-72
2022/01/03 01:50:49;;;;;;;3.83;1.35;;;13.50;60.20;;;;;;5144683;27;20471;-72
2022/01/03 01:53:21;;;;;;;2.90;1.30;;;13.60;60.00;;;;;;5132035;27;20023;-72
2022/01/03 01:55:50;;;;;;;2.45;1.30;;;13.60;59.90;;;;;;5131457;27;20097;-72
2022/01/03 01:58:36;;;;;;;3.45;1.35;;;13.60;60.00;;;;;;5132862;27;20050;-72
2022/01/03 02:01:07;;;;;;;5.55;1.50;;;13.60;59.70;;;;;;5110757;27;20035;-73
2022/01/03 02:03:57;;;;;;;5.75;1.52;;;13.60;59.40;;;;;;5131425;27;20024;-73
2022/01/03 02:06:46;;;;;;;3.70;1.33;;;13.60;59.60;;;;;;5129006;27;20031;-72
2022/01/03 02:09:36;;;;;;;5.13;1.63;;;13.60;59.20;;;;;;5142359;27;20023;-72
2022/01/03 02:12:05;;;;;;;5.50;1.58;;;13.60;59.40;;;;;;5124032;27;20349;-72
2022/01/03 02:14:36;;;;;;;5.53;1.40;;;13.50;59.70;;;;;;5118140;27;20167;-72
2022/01/03 02:17:02;;;;;;;2.10;1.20;;;13.60;59.70;;;;;;5119924;27;20032;-72
2022/01/03 02:19:28;;;;;;;6.72;1.50;;;13.50;59.90;;;;;;5119295;27;20121;-72
2022/01/03 02:21:54;;;;;;;4.43;1.73;;;13.50;59.90;;;;;;5127383;27;20169;-72
2022/01/03 02:24:19;;;;;;;3.88;1.13;;;13.60;59.80;;;;;;5113710;27;20114;-72
2022/01/03 02:26:45;;;;;;;2.97;1.27;;;13.50;60.00;;;;;;5134356;27;20489;-72
2022/01/03 02:29:11;;;;;;;4.82;1.40;;;13.50;59.90;;;;;;5125957;27;20102;-72
2022/01/03 02:31:38;;;;;;;4.20;1.50;;;13.50;60.00;;;;;;5141136;27;20068;-72
2022/01/03 02:34:04;;;;;;;3.42;1.30;;;13.50;60.00;;;;;;5136173;27;20027;-72
2022/01/03 02:36:32;;;;;;;3.70;1.20;;;13.50;60.00;;;;;;5118427;27;20038;-73
2022/01/03 02:38:57;;;;;;;5.53;1.10;;;13.50;60.00;;;;;;5140975;27;20031;-71
2022/01/03 02:41:24;;;;;;;4.95;1.40;;;13.50;60.10;;;;;;5135246;27;20087;-72
2022/01/03 02:43:50;;;;;;;8.02;1.63;;;13.40;60.00;;;;;;5119947;27;20553;-72
2022/01/03 02:46:16;;;;;;;6.53;1.60;;;13.40;59.60;;;;;;5142709;27;20030;-72
2022/01/03 02:48:42;;;;;;;7.97;1.55;;;13.40;59.50;;;;;;5117466;27;20538;-72
2022/01/03 02:51:08;;;;;;;4.65;1.30;;;13.40;59.70;;;;;;5130107;27;20483;-72
2022/01/03 02:53:33;;;;;;;4.82;1.35;;;13.40;59.70;;;;;;5134406;27;20398;-72
2022/01/03 02:56:00;;;;;;;6.45;1.63;;;13.40;59.60;;;;;;5133366;27;20036;-72
2022/01/03 02:58:26;;;;;;;5.47;1.33;;;13.40;59.60;;;;;;5135533;27;20026;-73
2022/01/03 03:00:52;;;;;;;6.65;1.50;;;13.40;59.60;;;;;;5126028;27;20032;-72
2022/01/03 03:03:20;;;;;;;4.10;1.77;;;13.40;59.70;;;;;;5128350;27;20379;-72
2022/01/03 03:05:46;;;;;;;4.57;1.25;;;13.40;59.30;;;;;;5138154;27;20486;-72
2022/01/03 03:08:13;;;;;;;3.28;1.10;;;13.40;59.80;;;;;;5134506;27;20081;-72
2022/01/03 03:10:40;;;;;;;5.40;1.15;;;13.40;59.90;;;;;;5129594;27;20115;-72
2022/01/03 03:13:06;;;;;;;3.00;1.10;;;13.40;59.90;;;;;;5134455;27;20386;-72
2022/01/03 03:15:32;;;;;;;2.72;1.10;;;13.40;59.70;;;;;;5111360;27;20035;-72
2022/01/03 03:17:59;;;;;;;5.25;1.45;;;13.40;59.70;;;;;;5108818;28;20027;-72
2022/01/03 03:20:27;;;;;;;4.03;1.17;;;13.40;59.80;;;;;;5129688;27;20152;-72
2022/01/03 03:22:54;;;;;;;3.92;1.48;;;13.40;59.80;;;;;;5119026;27;20027;-72
2022/01/03 03:25:23;;;;;;;5.95;1.77;;;13.40;59.80;;;;;;5134878;27;20070;-71
2022/01/03 03:27:52;;;;;;;4.55;1.40;;;13.40;59.80;;;;;;5122172;27;20051;-72
2022/01/03 03:30:36;;;;;;;3.83;1.30;;;13.40;59.80;;;;;;5127137;27;20062;-72
2022/01/03 03:33:08;;;;;;;3.55;1.00;;;13.40;59.30;;;;;;5123126;27;20106;-72
2022/01/03 03:35:34;;;;;;;3.47;1.52;;;13.40;59.70;;;;;;5141559;27;20054;-72
2022/01/03 03:38:00;;;;;;;6.15;1.70;;;13.40;59.80;;;;;;5126453;27;20444;-72
2022/01/03 03:40:26;;;;;;;4.22;1.48;;;13.40;59.80;;;;;;5135054;27;20035;-72
2022/01/03 03:42:52;;;;;;;4.57;1.27;;;13.40;59.90;;;;;;5118463;27;20096;-72
2022/01/03 03:45:18;;;;;;;4.63;1.30;;;13.40;60.00;;;;;;5132311;27;20075;-72
2022/01/03 03:47:44;;;;;;;4.75;1.27;;;13.30;60.30;;;;;;5130327;27;20027;-72
2022/01/03 03:50:10;;;;;;;5.22;2.05;;;13.40;59.70;;;;;;5118674;27;20111;-72
2022/01/03 03:52:36;;;;;;;4.10;1.20;;;13.40;59.50;;;;;;5103180;27;20683;-72
2022/01/03 03:55:03;;;;;;;2.72;1.40;;;13.30;59.60;;;;;;5134202;27;20031;-71
2022/01/03 03:57:28;;;;;;;5.88;1.25;;;13.30;59.60;;;;;;5098141;27;20031;-72
2022/01/03 03:59:54;;;;;;;4.88;1.40;;;13.30;59.40;;;;;;5096421;27;20039;-72
2022/01/03 04:02:20;;;;;;;4.47;1.48;;;13.30;59.40;;;;;;5141622;27;20380;-72
2022/01/03 04:04:46;;;;;;;4.22;1.50;;;13.30;59.40;;;;;;5120971;27;20046;-72
2022/01/03 04:07:11;;;;;;;4.45;1.50;;;13.30;59.60;;;;;;5133735;27;20027;-74
2022/01/03 04:09:37;;;;;;;2.60;1.10;;;13.20;59.30;;;;;;5124478;27;20049;-73
2022/01/03 04:12:03;;;;;;;5.18;1.63;;;13.30;59.60;;;;;;5134363;27;20031;-72
2022/01/03 04:14:29;;;;;;;4.50;1.38;;;13.20;58.90;;;;;;5144766;27;20386;-73
2022/01/03 04:16:54;;;;;;;4.18;1.58;;;13.20;58.60;;;;;;5144678;27;20031;-71
2022/01/03 04:19:20;;;;;;;4.80;1.58;;;13.20;58.80;;;;;;5121155;27;20079;-72
2022/01/03 04:21:46;;;;;;;3.85;1.85;;;13.20;58.90;;;;;;5110412;27;20039;-72
2022/01/03 04:24:12;;;;;;;6.70;1.33;;;13.20;58.80;;;;;;5134094;27;20535;-71
2022/01/03 04:26:39;;;;;;;4.72;1.67;;;13.20;57.90;;;;;;5130094;27;20032;-72
2022/01/03 04:29:05;;;;;;;5.30;1.55;;;13.20;58.30;;;;;;5098266;27;20019;-72
2022/01/03 04:31:31;;;;;;;4.45;1.50;;;13.20;58.20;;;;;;5095447;28;20060;-72
2022/01/03 04:33:57;;;;;;;5.85;1.67;;;13.10;57.60;;;;;;5109636;27;20038;-72
2022/01/03 04:36:24;;;;;;;4.57;1.83;;;13.10;57.90;;;;;;5123374;27;20108;-72
2022/01/03 04:38:50;;;;;;;4.43;1.65;;;13.10;57.80;;;;;;5117846;27;20851;-72
2022/01/03 04:41:16;;;;;;;4.38;1.70;;;13.10;58.40;;;;;;5128184;27;20036;-72
2022/01/03 04:43:42;;;;;;;7.03;1.58;;;13.10;58.10;;;;;;5115624;27;20383;-72
2022/01/03 04:46:09;;;;;;;6.45;1.55;;;13.10;58.20;;;;;;5124922;27;20038;-72
2022/01/03 04:48:36;;;;;;;5.40;1.60;;;13.10;58.10;;;;;;5124369;27;20452;-72
2022/01/03 04:51:03;;;;;;;4.80;1.58;;;13.10;58.20;;;;;;5126294;27;20024;-73
2022/01/03 04:53:29;;;;;;;7.40;1.90;;;13.00;58.00;;;;;;5119193;27;20027;-72
2022/01/03 04:55:55;;;;;;;3.63;1.38;;;13.00;57.80;;;;;;5129152;27;20027;-72
2022/01/03 04:58:21;;;;;;;6.05;1.52;;;13.00;58.00;;;;;;5122305;27;20020;-73
2022/01/03 05:00:48;;;;;;;4.93;1.55;;;13.00;57.90;;;;;;5099264;27;20035;-73
2022/01/03 05:03:15;;;;;;;4.55;1.42;;;12.90;58.00;;;;;;5127855;27;20102;-72
2022/01/03 05:05:40;;;;;;;4.88;1.73;;;12.90;57.80;;;;;;5139049;27;20085;-71
2022/01/03 05:08:06;;;;;;;6.18;2.25;;;12.90;57.90;;;;;;5135687;27;20019;-72
2022/01/03 05:10:33;;;;;;;5.57;1.75;;;12.90;57.80;;;;;;5125421;27;20066;-73
2022/01/03 05:12:59;;;;;;;6.47;1.40;;;12.90;57.90;;;;;;5136254;27;20019;-73
2022/01/03 05:15:25;;;;;;;4.30;1.73;;;12.90;58.00;;;;;;5139146;27;20033;-73
2022/01/03 05:17:50;;;;;;;4.97;1.90;;;12.90;57.80;;;;;;5122692;27;20019;-73
2022/01/03 05:20:16;;;;;;;6.30;1.85;;;12.90;58.10;;;;;;5113530;27;20061;-73
2022/01/03 05:22:42;;;;;;;4.28;1.63;;;12.90;58.30;;;;;;5100647;27;20106;-73
2022/01/03 05:25:08;;;;;;;5.10;1.50;;;12.90;58.10;;;;;;5135091;27;20038;-73
2022/01/03 05:27:34;;;;;;;8.63;1.60;;;12.80;58.10;;;;;;5127369;27;20028;-73
2022/01/03 05:30:01;;;;;;;7.00;1.65;;;12.80;58.30;;;;;;5138021;27;20052;-73
2022/01/03 05:32:27;;;;;;;6.25;1.60;;;12.80;58.30;;;;;;5127276;27;20028;-73
2022/01/03 05:34:52;;;;;;;6.03;1.95;;;12.80;58.40;;;;;;5101710;28;20387;-72
2022/01/03 05:37:18;;;;;;;8.60;2.15;;;12.80;58.40;;;;;;5116556;27;20046;-72
2022/01/03 05:39:44;;;;;;;3.72;1.60;;;12.80;58.50;;;;;;5139588;27;20065;-72
2022/01/03 05:42:09;;;;;;;4.72;1.60;;;12.70;58.40;;;;;;5121837;27;20391;-72
2022/01/03 05:44:38;;;;;;;5.07;1.50;;;12.70;58.60;;;;;;5138210;27;20019;-72
2022/01/03 05:47:03;;;;;;;10.27;1.80;;;12.70;58.70;;;;;;5155221;27;20113;-72
2022/01/03 05:49:29;;;;;;;5.60;1.75;;;12.70;58.70;;;;;;5138670;27;20109;-73
2022/01/03 05:51:55;;;;;;;4.30;1.52;;;12.70;58.90;;;;;;5124074;27;20447;-72
2022/01/03 05:54:21;;;;;;;4.45;1.50;;;12.70;58.60;;;;;;5126818;27;20657;-72
2022/01/03 05:56:46;;;;;;;4.97;1.65;;;12.70;58.80;;;;;;5125101;27;20029;-72
2022/01/03 05:59:12;;;;;;;5.43;1.50;;;12.70;58.70;;;;;;5129225;27;20459;-72
2022/01/03 06:01:39;;;;;;;10.63;1.70;;;12.70;58.90;;;;;;5134444;27;20038;-73
2022/01/03 06:04:20;;;;;;;5.95;1.60;;;12.70;58.70;;;;;;5110149;27;20066;-72
2022/01/03 06:07:01;;;;;;;13.52;2.00;;;12.70;58.50;;;;;;5116599;27;20024;-72
2022/01/03 06:09:27;;;;;;;4.85;1.10;;;12.70;58.00;;;;;;5116770;27;20028;-73
2022/01/03 06:11:53;;;;;;;7.55;2.00;;;12.70;58.30;;;;;;5122346;27;20527;-72
2022/01/03 06:14:20;;;;;;;6.55;1.77;;;12.70;58.00;;;;;;5133259;27;20027;-73
2022/01/03 06:16:47;;;;;;;6.18;1.67;;;12.70;57.60;;;;;;5135589;27;20019;-73
2022/01/03 06:19:14;;;;;;;7.35;1.70;;;12.80;58.00;;;;;;5118645;27;20543;-74
2022/01/03 06:21:43;;;;;;;2.97;1.40;;;12.80;58.00;;;;;;5137769;27;20031;-73
2022/01/03 06:24:10;;;;;;;8.25;2.10;;;12.80;58.00;;;;;;5142568;27;20027;-73
2022/01/03 06:26:37;;;;;;;4.30;1.70;;;12.80;58.10;;;;;;5128664;27;20039;-73
2022/01/03 06:29:04;;;;;;;9.45;1.80;;;12.80;57.90;;;;;;5128738;27;20019;-73
2022/01/03 06:31:31;;;;;;;9.80;2.20;;;12.80;57.60;;;;;;5132515;27;20400;-73
2022/01/03 06:33:56;;;;;;;6.00;1.50;;;12.80;57.90;;;;;;5126105;27;20042;-73
2022/01/03 06:36:22;;;;;;;8.27;1.60;;;12.80;58.00;;;;;;5118094;27;20482;-73
2022/01/03 06:38:48;;;;;;;3.72;1.45;;;12.80;58.10;;;;;;5131349;27;20024;-72
2022/01/03 06:41:13;;;;;;;5.93;1.60;;;12.80;58.00;;;;;;5125849;27;20067;-73
2022/01/03 06:43:39;;;;;;;8.82;1.85;;;12.80;58.10;;;;;;5098648;28;20090;-73
2022/01/03 06:46:05;;;;;;;7.43;1.52;;;12.80;58.20;;;;;;5136979;27;20027;-73
2022/01/03 06:48:30;;;;;;;9.10;2.00;;;12.80;58.10;;;;;;5126470;27;20443;-73
2022/01/03 06:50:56;;;;;;;5.60;1.48;;;12.80;58.20;;;;;;5129488;27;20027;-73
2022/01/03 06:53:21;;;;;;;6.78;1.50;;;12.80;57.90;;;;;;5120273;27;20054;-73
2022/01/03 06:55:47;;;;;;;7.38;1.83;;;12.80;58.10;;;;;;5114068;27;20072;-73
2022/01/03 06:58:13;;;;;;;6.80;1.73;;;12.80;57.90;;;;;;5129834;27;20407;-72
2022/01/03 07:00:38;;;;;;;5.75;2.00;;;12.80;57.80;;;;;;5132708;27;20039;-74
2022/01/03 07:03:04;;;;;;;5.60;1.48;;;12.80;57.80;;;;;;5085410;27;20023;-73
2022/01/03 07:05:30;;;;;;;4.65;1.30;;;12.80;57.70;;;;;;5135535;27;20047;-73
2022/01/03 07:07:55;;;;;;;6.78;1.83;;;12.80;57.90;;;;;;5097641;28;20024;-73
2022/01/03 07:10:21;;;;;;;6.28;1.73;;;12.80;57.90;;;;;;5127896;27;20026;-73
2022/01/03 07:12:51;;;;;;;5.18;1.85;;;12.80;58.00;;;;;;5100481;27;20019;-72
2022/01/03 07:20:47;;;;;;;7.78;1.63;;;12.80;58.10;;;;;;5137546;27;20072;-73
2022/01/03 07:23:13;;;;;;;6.70;1.83;;;12.80;57.90;;;;;;5134748;27;20487;-72
2022/01/03 07:25:39;;;;;;;8.27;2.03;;;12.80;57.90;;;;;;5130703;27;20478;-73
2022/01/03 07:28:06;;;;;;;8.88;1.60;;;12.70;58.00;;;;;;5118926;27;20097;-72
2022/01/03 07:30:32;;;;;;;6.18;1.77;;;12.70;58.00;;;;;;5124377;27;20505;-73
2022/01/03 07:32:57;;;;;;;6.00;1.55;;;12.70;58.10;;;;;;5122304;27;20035;-73
2022/01/03 07:35:23;;;;;;;4.55;1.40;;;12.70;58.00;;;;;;5136407;27;20035;-73
2022/01/03 07:37:49;;;;;;;6.85;1.50;;;12.70;58.20;;;;;;5135644;27;20503;-73
2022/01/03 07:40:15;;;;;;;8.45;1.83;;;12.70;58.10;;;;;;5129841;27;20035;-73
2022/01/03 07:42:42;;;;;;;5.88;1.92;;;12.70;58.20;;;;;;5119895;27;20027;-72
2022/01/03 07:45:09;;;;;;;5.63;1.58;;;12.60;58.00;;;;;;5149647;27;20027;-73
2022/01/03 07:47:34;;;;;;;6.75;1.40;;;12.70;58.30;;;;;;5142628;27;20366;-73
2022/01/03 07:50:00;;;;;;;4.03;1.38;;;12.70;58.40;;;;;;5122675;27;20501;-72
2022/01/03 07:52:26;;;;;;;8.73;1.85;;;12.60;58.30;;;;;;5136055;27;20391;-72
2022/01/03 07:54:52;;;;;;;6.78;1.90;;;12.60;58.40;;;;;;5116502;27;20045;-72
2022/01/03 07:57:18;;;;;;;4.18;1.42;;;12.60;58.50;;;;;;5139351;27;20479;-72
2022/01/03 07:59:45;;;;;;;5.80;1.60;;;12.50;58.60;;;;;;5138378;27;20479;-72
2022/01/03 08:02:11;;;;;;;5.22;1.30;;;12.50;58.60;;;;;;5125046;27;20042;-73
2022/01/03 08:04:37;;;;;;;6.32;1.52;;;12.50;58.70;;;;;;5105098;27;20019;-73
2022/01/03 08:07:03;;;;;;;3.65;1.02;;;12.50;58.90;;;;;;5113626;27;20027;-72
2022/01/03 08:09:29;;;;;;;4.32;1.10;;;12.50;59.00;;;;;;5130710;27;20070;-72
2022/01/03 08:11:55;;;;;;;5.20;1.25;;;12.40;59.00;;;;;;5144149;27;20475;-73
2022/01/03 08:14:20;;;;;;;7.55;1.40;;;12.40;59.10;;;;;;5132992;27;20035;-73
2022/01/03 08:16:46;;;;;;;2.72;1.17;;;12.40;59.20;;;;;;5129240;27;20026;-74
2022/01/03 08:19:12;;;;;;;7.00;1.52;;;12.40;59.30;;;;;;5129448;27;20090;-74
2022/01/03 08:21:38;;;;;;;6.05;1.60;;;12.40;59.30;;;;;;5130889;27;20024;-73
2022/01/03 08:24:04;;;;;;;7.13;1.50;;;12.40;59.40;;;;;;5133299;27;20031;-74
2022/01/03 08:26:31;;;;;;;5.22;1.40;;;12.40;59.40;;;;;;5125491;27;20065;-73
2022/01/03 08:28:57;;;;;;;8.93;1.95;;;12.40;59.50;;;;;;5116645;27;20030;-74
2022/01/03 08:31:23;;;;;;;6.57;2.13;;;12.40;59.60;;;;;;5137277;27;20039;-74
2022/01/03 08:33:48;;;;;;;5.50;1.65;;;12.40;59.70;;;;;;5125351;27;20047;-74
2022/01/03 08:36:14;;;;;;;6.63;1.60;;;12.40;59.70;;;;;;5132917;27;20375;-74
2022/01/03 08:38:40;;;;;;;7.97;1.42;;;12.40;59.70;;;;;;5114124;27;20398;-74
2022/01/03 08:41:06;;;;;;;6.78;1.52;;;12.40;59.60;;;;;;5128355;27;20049;-74
2022/01/03 08:43:32;;;;;;;5.78;1.90;;;12.40;59.80;;;;;;5137597;27;20027;-75
2022/01/03 08:45:58;;;;;;;14.38;1.60;;;12.40;59.80;;;;;;5125075;27;20031;-75
2022/01/03 08:48:24;;;;;;;5.65;1.60;;;12.40;59.90;;;;;;5128869;27;20487;-75
2022/01/03 08:50:49;;;;;;;6.88;1.73;;;12.40;59.90;;;;;;5106661;27;20422;-74
2022/01/03 08:53:15;;;;;;;8.65;1.80;;;12.40;59.90;;;;;;5131177;27;20064;-74
2022/01/03 08:55:41;;;;;;;6.97;1.75;;;12.40;59.80;;;;;;5129740;27;20035;-74
2022/01/03 08:58:07;;;;;;;5.00;1.75;;;12.40;59.80;;;;;;5110404;27;20074;-74
2022/01/03 09:00:34;;;;;;;5.53;1.27;;;12.40;59.90;;;;;;5134072;27;20510;-74
2022/01/03 09:02:59;;;;;;;6.90;1.50;;;12.40;59.90;;;;;;5121584;27;20015;-76
2022/01/03 09:05:25;;;;;;;6.97;1.70;;;12.40;59.90;;;;;;5117118;27;20030;-76
2022/01/03 09:07:51;;;;;;;3.72;1.40;;;12.40;59.90;;;;;;5124899;27;20084;-75
2022/01/03 09:10:17;;;;;;;6.30;1.67;;;12.50;59.90;;;;;;5099347;27;20475;-75
2022/01/03 09:12:43;;;;;;;7.13;1.88;;;12.50;60.00;;;;;;5145954;27;20018;-75
2022/01/03 09:15:09;;;;;;;4.70;1.70;;;12.50;59.90;;;;;;5141606;27;20099;-75
2022/01/03 09:17:35;;;;;;;7.20;1.90;;;12.50;60.00;;;;;;5135936;27;20467;-75
2022/01/03 09:20:00;;;;;;;8.55;2.33;;;12.50;60.00;;;;;;5129232;27;20054;-75
2022/01/03 09:22:33;;;;;;;7.00;1.52;;;12.60;59.90;;;;;;5114398;27;20058;-75
2022/01/03 09:30:12;;;;;;;5.22;1.70;;;12.60;59.80;;;;;;5132717;27;20152;-75
2022/01/03 09:32:38;;;;;;;4.22;1.67;;;12.70;59.90;;;;;;5104525;28;20110;-75
2022/01/03 09:35:05;;;;;;;6.78;2.50;;;12.70;59.90;;;;;;5111493;28;20034;-75
2022/01/03 09:37:33;;;;;;;8.23;2.15;;;12.80;59.80;;;;;;5117516;27;20042;-75
2022/01/03 09:39:59;;;;;;;7.85;2.30;;;12.80;59.70;;;;;;5113267;28;20127;-75
2022/01/03 09:42:28;;;;;;;7.28;1.60;;;12.80;59.80;;;;;;5133886;27;20475;-75
2022/01/03 09:44:56;;;;;;;6.13;1.35;;;12.80;59.70;;;;;;5113686;28;20028;-75
2022/01/03 09:47:22;;;;;;;3.92;1.40;;;12.90;59.70;;;;;;5120077;27;20031;-74
2022/01/03 09:49:50;;;;;;;6.88;1.50;;;12.90;59.70;;;;;;5107432;27;20468;-75
2022/01/03 09:52:21;;;;;;;9.07;1.88;;;12.90;59.60;;;;;;5128232;27;20035;-75
2022/01/03 09:54:48;;;;;;;7.53;1.45;;;13.00;59.60;;;;;;5115110;27;20016;-75
2022/01/03 09:57:15;;;;;;;6.65;1.40;;;13.00;59.60;;;;;;5102935;28;20084;-75
2022/01/03 09:59:43;;;;;;;5.10;1.55;;;13.00;60.00;;;;;;5129899;27;20034;-75
2022/01/03 10:02:09;;;;;;;8.05;1.67;;;13.10;59.30;;;;;;5107055;28;20076;-75
2022/01/03 10:04:35;;;;;;;9.82;1.60;;;13.10;59.20;;;;;;5133400;27;20531;-75
2022/01/03 10:07:01;;;;;;;9.57;1.55;;;13.10;59.20;;;;;;5131292;27;20028;-75
2022/01/03 10:09:28;;;;;;;6.80;1.73;;;13.20;59.10;;;;;;5110984;27;20378;-75
2022/01/03 10:11:53;;;;;;;5.75;1.40;;;13.20;58.90;;;;;;5120944;27;20095;-75
2022/01/03 10:14:19;;;;;;;7.10;2.03;;;13.20;58.80;;;;;;5134303;27;20027;-75
2022/01/03 10:16:46;;;;;;;10.85;5.47;;;13.30;58.70;;;;;;5127259;27;20015;-75
2022/01/03 10:19:12;;;;;;;5.65;2.10;;;13.30;58.90;;;;;;5132722;27;20046;-75
2022/01/03 10:21:44;;;;;;;7.30;2.38;;;13.30;58.70;;;;;;5112340;27;20387;-75
2022/01/03 10:24:11;;;;;;;6.68;2.10;;;13.40;58.60;;;;;;5135078;27;20474;-75
2022/01/03 10:26:38;;;;;;;14.73;3.45;;;13.40;58.70;;;;;;5139620;27;20022;-75
2022/01/03 10:29:19;;;;;;;5.85;1.40;;;13.40;58.40;;;;;;5131269;27;20123;-74
2022/01/03 10:31:47;;;;;;;5.13;1.45;;;13.50;58.40;;;;;;5120863;27;20494;-73
2022/01/03 10:34:16;;;;;;;5.40;1.85;;;13.50;58.00;;;;;;5121686;27;20156;-73
2022/01/03 10:36:42;;;;;;;5.70;1.25;;;13.60;57.90;;;;;;5144596;27;20019;-72
2022/01/03 10:39:22;;;;;;;6.95;1.40;;;13.60;58.10;;;;;;5142921;27;20075;-72
2022/01/03 10:42:11;;;;;;;8.88;1.52;;;13.60;57.50;;;;;;5128536;27;20039;-72
2022/01/03 10:44:40;;;;;;;4.88;1.48;;;13.60;57.90;;;;;;5105226;28;20023;-72
2022/01/03 10:47:08;;;;;;;4.07;1.60;;;13.70;57.80;;;;;;5115123;27;20475;-72
2022/01/03 10:49:35;;;;;;;5.35;1.58;;;13.70;57.70;;;;;;5117798;27;20027;-73
2022/01/03 10:52:20;;;;;;;5.10;1.67;;;13.70;57.40;;;;;;5134425;27;20027;-74
2022/01/03 10:55:11;;;;;;;6.18;1.83;;;13.80;57.30;;;;;;5128328;27;20023;-73
2022/01/03 10:58:04;;;;;;;6.20;1.40;;;13.80;57.10;;;;;;5122227;27;20035;-73
2022/01/03 11:00:34;;;;;;;4.43;1.70;;;13.80;57.10;;;;;;5130903;27;20070;-73
2022/01/03 11:03:14;;;;;;;5.63;1.10;;;13.80;57.40;;;;;;5134830;27;20023;-72
2022/01/03 11:05:45;;;;;;;4.80;1.27;;;13.80;57.30;;;;;;5128104;27;20019;-73
2022/01/03 11:10:57;;;;;;;8.13;1.90;;;13.80;57.10;;;;;;5136534;27;20449;-74
2022/01/03 11:13:24;;;;;;;9.45;4.05;;;13.90;57.20;;;;;;5136203;27;20027;-74
2022/01/03 11:15:53;;;;;;;10.50;3.17;;;13.90;57.10;;;;;;5136229;27;20038;-74
2022/01/03 11:18:27;;;;;;;6.30;2.28;;;13.90;57.00;;;;;;5135801;27;20023;-74
2022/01/03 11:21:19;;;;;;;4.93;2.13;;;13.90;56.70;;;;;;5135748;27;20157;-74
2022/01/03 11:24:09;;;;;;;5.25;1.75;;;13.90;56.60;;;;;;5135741;27;20053;-74
2022/01/03 11:26:46;;;;;;;10.80;2.08;;;13.90;57.00;;;;;;5115720;27;20514;-74
2022/01/03 11:29:12;;;;;;;4.35;1.83;;;13.90;57.00;;;;;;5119312;27;20027;-74
2022/01/03 11:31:39;;;;;;;7.35;2.00;;;13.90;57.00;;;;;;5106845;28;20136;-74
2022/01/03 11:34:10;;;;;;;5.57;1.85;;;13.90;56.80;;;;;;5134488;27;20117;-74
2022/01/03 11:36:39;;;;;;;5.72;1.50;;;13.90;56.80;;;;;;5135304;27;20019;-74
2022/01/03 11:39:10;;;;;;;7.43;1.15;;;13.90;57.10;;;;;;5135120;27;20080;-74
2022/01/03 11:41:39;;;;;;;4.95;1.60;;;13.90;56.90;;;;;;5135556;27;20027;-74
2022/01/03 11:44:05;;;;;;;4.47;1.50;;;13.90;57.40;;;;;;5135392;27;20029;-74
2022/01/03 11:46:31;;;;;;;6.88;2.25;;;13.90;57.50;;;;;;5117296;27;20023;-74
2022/01/03 11:48:58;;;;;;;5.55;2.25;;;13.90;57.70;;;;;;5120825;27;20077;-74
2022/01/03 11:51:29;;;;;;;7.90;2.30;;;13.80;57.80;;;;;;5135276;27;20034;-74
2022/01/03 11:53:55;;;;;;;5.72;2.17;;;13.80;58.00;;;;;;5134973;27;20050;-74
2022/01/03 11:56:23;;;;;;;8.25;2.13;;;13.80;58.10;;;;;;5135380;27;20509;-74
2022/01/03 12:04:18;;;;;;;8.32;2.30;;;13.70;58.60;;;;;;5134759;27;20034;-74
2022/01/03 12:06:45;;;;;;;7.85;2.25;;;13.80;58.80;;;;;;5116922;27;20049;-74
2022/01/03 12:09:13;;;;;;;8.38;2.88;;;13.70;58.90;;;;;;5134801;27;20487;-74
2022/01/03 12:11:54;;;;;;;6.97;2.75;;;13.80;59.10;;;;;;5133507;27;20483;-74
2022/01/03 12:14:37;;;;;;;7.28;3.20;;;13.80;59.10;;;;;;5134698;27;20551;-74
2022/01/03 12:17:06;;;;;;;6.45;2.00;;;13.80;59.20;;;;;;5134526;27;20753;-74
2022/01/03 12:19:38;;;;;;;7.32;1.80;;;13.80;59.20;;;;;;5116215;27;20424;-74
2022/01/03 12:22:18;;;;;;;6.50;1.75;;;13.80;59.30;;;;;;5116632;27;20079;-74
2022/01/03 12:24:46;;;;;;;12.77;2.25;;;13.70;59.40;;;;;;5134261;27;20019;-74
2022/01/03 12:27:15;;;;;;;10.02;2.45;;;13.70;59.40;;;;;;5128874;27;20090;-74
2022/01/03 12:29:58;;;;;;;6.90;1.80;;;13.70;59.50;;;;;;5132558;27;20368;-73
2022/01/03 12:32:27;;;;;;;4.47;1.55;;;13.70;59.60;;;;;;5129751;27;20491;-74
2022/01/03 12:35:17;;;;;;;5.38;1.73;;;13.70;59.60;;;;;;5134271;27;20539;-74
2022/01/03 12:37:54;;;;;;;6.55;1.95;;;13.60;59.70;;;;;;5116764;27;20072;-74
2022/01/03 12:40:34;;;;;;;4.00;1.92;;;13.60;59.80;;;;;;5115309;27;20073;-74
2022/01/03 12:43:06;;;;;;;5.65;1.42;;;13.50;59.80;;;;;;5134092;27;20098;-74
2022/01/03 12:45:32;;;;;;;5.50;1.60;;;13.50;59.80;;;;;;5132440;27;20049;-74
2022/01/03 12:50:40;;;;;;;4.85;1.50;;;13.50;60.30;;;;;;5134249;27;20081;-74
2022/01/03 12:53:07;;;;;;;6.60;1.98;;;13.40;60.30;;;;;;5131623;27;20011;-74
2022/01/03 12:55:39;;;;;;;8.80;1.92;;;13.40;60.40;;;;;;5134277;27;20031;-74
2022/01/03 12:58:16;;;;;;;5.60;1.75;;;13.40;60.60;;;;;;5133819;27;20019;-74
2022/01/03 13:00:48;;;;;;;8.00;2.10;;;13.40;60.60;;;;;;5095207;28;20059;-74
2022/01/03 13:03:31;;;;;;;4.70;2.03;;;13.40;60.50;;;;;;5118210;27;20534;-74
2022/01/03 13:06:13;;;;;;;8.13;2.10;;;13.40;60.60;;;;;;5134096;27;20110;-74
2022/01/03 13:08:48;;;;;;;3.90;1.83;;;13.40;60.60;;;;;;5133697;27;20022;-74
2022/01/03 13:11:28;;;;;;;5.95;2.47;;;13.40;60.60;;;;;;5115689;27;20023;-74
2022/01/03 13:13:56;;;;;;;7.25;2.42;;;13.40;60.40;;;;;;5115198;27;20019;-74
2022/01/03 13:16:41;;;;;;;11.73;2.83;;;13.40;60.40;;;;;;5133915;27;20035;-74